• Join FlightAware (Why Join?)
  • Login
  • US Flag 
11:28AM EDT


 

Airport Tracker/Info


-or-


 

Live Flight TrackerFlight Track Log ✈ N513SJ ✈ 03-Aug-2014 ✈ KMKG - KLUA

Flight Track Log - Related Links

Times and Time Zones

All times are in EDT time to prevent confusion due to time zone crossing. See the N513SJ flight status page for this flight to view local times or setup timezone preferences in your user account.

Time Position Orientation Groundspeed Altitude Reporting Facility
EDT Latitude Longitude Course Direction KTS MPH feet Rate Location/Type
10:46AM 43.0133 -85.9706 123° Southeast 197 227 15,500  Level Cleveland Center
10:47AM 42.9842 -85.9081 123° Southeast 197 227 15,500 -60 Level Cleveland Center
10:48AM 42.9550 -85.8456 123° Southeast 197 227 15,400 -120 Descending Cleveland Center
10:49AM 42.9222 -85.7783 124° Southeast 197 227 15,300 -120 Descending Cleveland Center
10:50AM 42.8903 -85.7153 125° Southeast 201 231 15,200 -180 Descending Cleveland Center
10:51AM 42.8594 -85.6511 123° Southeast 201 231 15,000 -120 Descending Cleveland Center
10:52AM 42.8292 -85.5861 122° Southeast 202 232 15,000  Level Cleveland Center
10:53AM 42.7997 -85.5239 123° Southeast 200 230 15,000  Level Cleveland Center
10:54AM 42.7639 -85.4483 123° Southeast 200 230 15,000  Level Chicago Center
10:55AM 42.7353 -85.3861 122° Southeast 198 228 15,000  Level Chicago Center
10:56AM 42.6978 -85.3119 125° Southeast 198 228 15,000  Level Chicago Center
10:57AM 42.6664 -85.2519 125° Southeast 197 227 15,000  Level Chicago Center
10:58AM 42.6342 -85.1925 126° Southeast 197 227 15,000  Level Chicago Center
10:59AM 42.6022 -85.1325 126° Southeast 197 227 15,000  Level Chicago Center
11:00AM 42.5714 -85.0722 125° Southeast 196 226 15,000  Level Chicago Center
11:01AM 42.5331 -85.0017 126° Southeast 196 226 15,000  Level Chicago Center
11:02AM 42.5011 -84.9425 126° Southeast 196 226 15,000  Level Chicago Center
11:03AM 42.4700 -84.8822 125° Southeast 196 226 15,000  Level Chicago Center
11:04AM 42.4378 -84.8239 127° Southeast 195 224 15,000  Level Chicago Center
11:05AM 42.4053 -84.7656 127° Southeast 195 224 15,000  Level Cleveland Center
11:06AM 42.3744 -84.7089 126° Southeast 194 223 15,000  Level Cleveland Center
11:07AM 42.3397 -84.6450 126° Southeast 194 223 15,000  Level Cleveland Center
11:08AM 42.3089 -84.5858 125° Southeast 194 223 15,000  Level Cleveland Center
11:09AM 42.2767 -84.5275 127° Southeast 194 223 15,000  Level Cleveland Center
11:10AM 42.2453 -84.4678 125° Southeast 195 224 15,000  Level Cleveland Center
11:11AM 42.2136 -84.4094 126° Southeast 194 223 15,000  Level Cleveland Center
11:13AM 42.1761 -84.3400 126° Southeast 193 222 15,000  Level Cleveland Center
11:14AM 42.1439 -84.2814 127° Southeast 193 222 15,000  Level Cleveland Center
11:15AM 42.1125 -84.2222 126° Southeast 193 222 15,000  Level Cleveland Center
11:16AM 42.0806 -84.1639 126° Southeast 194 223 15,000  Level Cleveland Center
11:17AM 42.0481 -84.1044 126° Southeast 194 223 15,000  Level Cleveland Center
11:18AM 42.0083 -84.0356 128° Southeast 194 223 15,000  Level Cleveland Center
11:19AM 41.9769 -83.9750 125° Southeast 196 226 15,000  Level Cleveland Center
11:20AM 41.9444 -83.9161 127° Southeast 196 226 15,000  Level Cleveland Center
11:21AM 41.9119 -83.8575 127° Southeast 196 226 15,000  Level Cleveland Center
11:22AM 41.8800 -83.7994 126° Southeast 196 226 15,000  Level Cleveland Center
11:23AM 41.8403 -83.7292 127° Southeast 196 226 15,000  Level Cleveland Center
11:24AM 41.8092 -83.6717 126° Southeast 194 223 15,000  Level Cleveland Center
11:25AM 41.7781 -83.6142 126° Southeast 193 222 15,000  Level Cleveland Center
11:26AM 41.7456 -83.5575 128° Southeast 193 222 15,000  Level Cleveland Center
11:27AM 41.7139 -83.5011 127° Southeast 193 222 15,000  Level Cleveland Center
11:28AM 41.6742 -83.4311 127° Southeast 193 222 15,000  Level Cleveland Center
11:29AM 41.6425 -83.3739 127° Southeast 193 222 15,000  Level Cleveland Center
11:30AM 41.6108 -83.3172 127° Southeast 193 222 15,000  Level Cleveland Center
11:31AM 41.5786 -83.2619 128° Southeast 191 220 15,000  Level Cleveland Center
11:32AM 41.5464 -83.2033 126° Southeast 191 220 15,000  Level Cleveland Center
11:33AM 41.5078 -83.1364 128° Southeast 192 221 15,000  Level Cleveland Center
11:34AM 41.4756 -83.0789 127° Southeast 192 221 15,000  Level Cleveland Center
11:35AM 41.4433 -83.0219 127° Southeast 192 221 15,000  Level Cleveland Center
11:36AM 41.4097 -82.9647 128° Southeast 192 221 15,000  Level Cleveland Center
11:37AM 41.3769 -82.9078 127° Southeast 192 221 15,000  Level Cleveland Center
11:38AM 41.3439 -82.8506 128° Southeast 193 222 15,000  Level Cleveland Center
11:39AM 41.3117 -82.7936 127° Southeast 193 222 15,000  Level Cleveland Center
11:40AM 41.2722 -82.7247 127° Southeast 197 227 15,000  Level Cleveland Center
11:42AM 41.2386 -82.6675 128° Southeast 198 228 15,000  Level Cleveland Center
11:43AM 41.2061 -82.6086 126° Southeast 197 227 15,000  Level Cleveland Center
11:44AM 41.1711 -82.5506 129° Southeast 198 228 15,000  Level Cleveland Center
11:45AM 41.1389 -82.4931 127° Southeast 196 226 15,000  Level Cleveland Center
11:46AM 41.1044 -82.4356 128° Southeast 196 226 15,000  Level Cleveland Center
11:47AM 41.0678 -82.3689 126° Southeast 195 224 15,000  Level Cleveland Center
11:48AM 41.0339 -82.3125 129° Southeast 195 224 15,000  Level Cleveland Center
11:49AM 40.9994 -82.2547 128° Southeast 195 224 15,000  Level Cleveland Center
11:50AM 40.9667 -82.1983 128° Southeast 195 224 15,000  Level Cleveland Center
11:51AM 40.9336 -82.1403 127° Southeast 195 224 15,000  Level Cleveland Center
11:52AM 40.8947 -82.0747 128° Southeast 195 224 15,000  Level Cleveland Center
11:53AM 40.8617 -82.0178 127° Southeast 195 224 15,000  Level Cleveland Center
11:54AM 40.8272 -81.9608 129° Southeast 195 224 15,000  Level Cleveland Center
11:55AM 40.7942 -81.9044 128° Southeast 195 224 15,000  Level Cleveland Center
11:56AM 40.7603 -81.8475 128° Southeast 196 226 15,000  Level Cleveland Center
11:57AM 40.7269 -81.7906 128° Southeast 196 226 15,000  Level Cleveland Center
11:58AM 40.6883 -81.7239 127° Southeast 196 226 15,000  Level Cleveland Center
11:59AM 40.6539 -81.6683 129° Southeast 196 226 15,000  Level Cleveland Center
12:00PM 40.6194 -81.6125 129° Southeast 195 224 15,000  Level Cleveland Center
12:01PM 40.5886 -81.5553 125° Southeast 194 223 15,000  Level Cleveland Center
12:02PM 40.5533 -81.4994 130° Southeast 195 224 15,000  Level Cleveland Center
12:03PM 40.5206 -81.4444 128° Southeast 193 222 15,000  Level Cleveland Center
12:04PM 40.4861 -81.3861 128° Southeast 193 222 15,000  Level Cleveland Center
12:05PM 40.4525 -81.3314 129° Southeast 193 222 15,000  Level Cleveland Center
12:06PM 40.4128 -81.2653 128° Southeast 193 222 15,000  Level Cleveland Center
12:07PM 40.3786 -81.2103 129° Southeast 193 222 15,000  Level Cleveland Center
12:08PM 40.3447 -81.1533 128° Southeast 196 226 15,000  Level Cleveland Center
12:09PM 40.3114 -81.0967 128° Southeast 198 228 15,000  Level Cleveland Center
12:10PM 40.2761 -81.0419 130° Southeast 198 228 15,000  Level Cleveland Center
12:12PM 40.2417 -80.9856 129° Southeast 198 228 15,000  Level Cleveland Center
12:13PM 40.2011 -80.9183 128° Southeast 198 228 15,000  Level Cleveland Center
12:14PM 40.1664 -80.8619 129° Southeast 199 229 15,000  Level Cleveland Center
12:15PM 40.1325 -80.8056 128° Southeast 199 229 15,000  Level Cleveland Center
12:16PM 40.0983 -80.7489 128° Southeast 199 229 15,000  Level Cleveland Center
12:17PM 40.0639 -80.6931 129° Southeast 198 228 15,000  Level Cleveland Center
12:18PM 40.0222 -80.6261 129° Southeast 199 229 15,000  Level Cleveland Center
12:19PM 39.9883 -80.5714 129° Southeast 198 228 15,000  Level Cleveland Center
12:20PM 39.9533 -80.5147 129° Southeast 199 229 15,000  Level Cleveland Center
12:21PM 39.9189 -80.4569 128° Southeast 200 230 15,000  Level Cleveland Center
12:22PM 39.8833 -80.4006 129° Southeast 200 230 15,000  Level Cleveland Center
12:23PM 39.8414 -80.3328 129° Southeast 201 231 15,000  Level Cleveland Center
12:24PM 39.8067 -80.2772 129° Southeast 200 230 15,000  Level Cleveland Center
12:25PM 39.7711 -80.2211 129° Southeast 200 230 15,000  Level Cleveland Center
12:26PM 39.7367 -80.1650 129° Southeast 200 230 15,000  Level Cleveland Center
12:27PM 39.7011 -80.1089 129° Southeast 200 230 15,000  Level Cleveland Center
12:28PM 39.6656 -80.0536 130° Southeast 202 232 15,000  Level Cleveland Center
12:29PM 39.6236 -79.9858 129° Southeast 201 231 15,000  Level Cleveland Center
12:30PM 39.5892 -79.9286 128° Southeast 201 231 15,000  Level Cleveland Center
12:31PM 39.5528 -79.8733 130° Southeast 202 232 15,000  Level Cleveland Center
12:32PM 39.5172 -79.8175 130° Southeast 202 232 15,000  Level Cleveland Center
12:33PM 39.4817 -79.7606 129° Southeast 203 234 15,000  Level Cleveland Center
12:34PM 39.4394 -79.6919 129° Southeast 203 234 15,000  Level Cleveland Center
12:35PM 39.4039 -79.6369 130° Southeast 203 234 15,000  Level Cleveland Center
12:36PM 39.3694 -79.5836 130° Southeast 198 228 15,000  Level Cleveland Center
12:37PM 39.3339 -79.5275 129° Southeast 199 229 15,000  Level Cleveland Center
12:38PM 39.2986 -79.4714 129° Southeast 201 231 15,000  Level Cleveland Center
12:39PM 39.2636 -79.4178 130° Southeast 199 229 15,000  Level Cleveland Center
12:41PM 39.2219 -79.3517 129° Southeast 199 229 15,000  Level Cleveland Center
12:41PM 39.2081 -79.3203 120° Southeast 195 224 15,000 -180 Level Washington Center
12:42PM 39.1700 -79.2675 133° Southeast 195 224 14,700 -420 Descending Washington Center
12:43PM 39.1261 -79.2039 132° Southeast 214 246 14,200 -540 Descending Washington Center
12:44PM 39.0883 -79.1431 129° Southeast 214 246 13,700 -600 Descending Washington Center
12:46PM 39.0144 -79.0300 130° Southeast 209 241 12,400 -660 Descending Washington Center
12:47PM 38.9783 -78.9747 130° Southeast 209 241 11,700 -720 Descending Washington Center
12:48PM 38.9403 -78.9197 132° Southeast 209 241 11,100 -540 Descending Washington Center
12:49PM 38.9064 -78.8675 130° Southeast 204 235 10,700 -480 Descending Washington Center
12:52PM 38.8061 -78.7164 90° East 193 222 9,200 -600 Descending Washington Center
12:53PM 38.7739 -78.6697 132° Southeast 182 209 8,500 -840 Descending Washington Center
12:54PM 38.7439 -78.6233 130° Southeast 177 204 7,600 -1,140 Descending Washington Center
12:55PM 38.7117 -78.5794 133° Southeast 172 198 6,300 -1,320 Descending Washington Center
12:57PM 38.6628 -78.5113 133° Southeast  Level FlightAware Approximate
12:58PM 38.6667 -78.5000 90° East  Level FlightAware Approximate